Terminal Aerodrome Forecast
Issued by NWS

Current Version | Previous Version | Graphics & Text | Print | Product List | Glossary On
Versions: 1 2 3 4 5 6 7 8 9 10 11 12 13 14 15 16 17 18 19 20 21
000
FTUS41 KPBZ 291700
TAFHLG
TAF
KHLG 291721Z 2918/3018 25010G20KT P6SM BKN045
     FM292300 28006KT P6SM BKN040
     FM300400 29005KT P6SM BKN025
     FM301700 27006KT P6SM BKN035=

USA.gov is the U.S. government's official web portal to all federal, state and local government web resources and services.